createdAt,value
2019-01-13T00:01:54.334Z,85.40
2019-01-13T00:04:23.504Z,85.00
2019-01-13T00:06:52.764Z,85.30
2019-01-13T00:09:21.904Z,84.80
2019-01-13T00:11:51.057Z,84.90
2019-01-13T00:14:20.308Z,85.00
2019-01-13T00:16:49.440Z,85.30
2019-01-13T00:19:18.600Z,85.60
2019-01-13T00:21:47.740Z,85.50
2019-01-13T00:24:17.080Z,85.00
2019-01-13T00:26:46.292Z,85.30
2019-01-13T00:29:15.447Z,85.30
2019-01-13T00:31:44.601Z,85.30
2019-01-13T00:34:13.757Z,85.80
2019-01-13T00:36:43.084Z,85.40
2019-01-13T00:39:12.302Z,85.60
2019-01-13T00:41:41.788Z,85.70
2019-01-13T00:44:10.954Z,85.50
2019-01-13T00:46:40.140Z,85.60
2019-01-13T00:49:09.272Z,85.70
2019-01-13T00:51:38.440Z,85.80
2019-01-13T00:54:07.573Z,85.40
2019-01-13T00:56:36.844Z,85.40
2019-01-13T00:59:06.021Z,85.10
2019-01-13T01:01:35.327Z,85.30
2019-01-13T01:04:04.781Z,85.70
2019-01-13T01:06:34.004Z,85.00
2019-01-13T01:09:03.204Z,85.00
2019-01-13T01:11:32.349Z,85.00
2019-01-13T01:14:01.503Z,85.30
2019-01-13T01:16:30.675Z,85.20
2019-01-13T01:18:59.977Z,84.70
2019-01-13T01:21:29.312Z,84.70
2019-01-13T01:23:58.608Z,84.70
2019-01-13T01:26:27.837Z,84.90
2019-01-13T01:28:56.975Z,84.80
2019-01-13T01:31:26.193Z,84.80
2019-01-13T01:33:55.392Z,85.10
2019-01-13T01:36:24.602Z,84.80
2019-01-13T01:38:53.762Z,84.40
2019-01-13T01:41:22.921Z,84.70
2019-01-13T01:43:52.189Z,84.90
2019-01-13T01:46:21.530Z,84.90
2019-01-13T01:48:50.780Z,84.60
2019-01-13T01:51:19.910Z,85.10
2019-01-13T01:53:49.090Z,85.00
2019-01-13T01:56:18.236Z,85.00
2019-01-13T01:58:47.384Z,84.70
2019-01-13T02:01:16.519Z,84.80
2019-01-13T02:03:45.704Z,84.90
2019-01-13T02:06:14.896Z,85.10
2019-01-13T02:08:44.049Z,85.00
2019-01-13T02:11:13.194Z,85.20
2019-01-13T02:13:42.353Z,85.00
2019-01-13T02:16:11.480Z,85.40
2019-01-13T02:18:40.641Z,85.30
2019-01-13T02:21:09.779Z,85.40
2019-01-13T02:23:38.943Z,85.30
2019-01-13T02:26:08.075Z,85.10
2019-01-13T02:28:37.220Z,85.00
2019-01-13T02:31:06.380Z,85.30
2019-01-13T02:33:35.517Z,85.40
2019-01-13T02:36:04.668Z,85.50
2019-01-13T02:38:33.968Z,85.90
2019-01-13T02:41:03.300Z,85.60
2019-01-13T02:43:32.457Z,85.40
2019-01-13T02:46:01.616Z,85.40
2019-01-13T02:48:30.757Z,85.50
2019-01-13T02:50:59.906Z,85.80
2019-01-13T02:53:29.070Z,85.80
2019-01-13T02:55:58.253Z,85.70
2019-01-13T02:58:27.376Z,85.80
2019-01-13T03:00:57.349Z,85.80
2019-01-13T03:03:26.821Z,85.90
2019-01-13T03:05:56.071Z,85.80
2019-01-13T03:08:25.196Z,85.80
2019-01-13T03:10:54.336Z,85.80
2019-01-13T03:13:23.495Z,85.80
2019-01-13T03:15:52.640Z,85.90
2019-01-13T03:18:21.776Z,85.70
2019-01-13T03:20:51.121Z,86.20
2019-01-13T03:23:20.296Z,86.30
2019-01-13T03:25:49.505Z,87.00
2019-01-13T03:28:18.705Z,86.80
2019-01-13T03:30:47.849Z,86.80
2019-01-13T03:33:17.008Z,87.20
2019-01-13T03:35:46.151Z,87.30
2019-01-13T03:38:15.292Z,87.50
2019-01-13T03:40:44.432Z,87.90
2019-01-13T03:43:13.575Z,87.20
2019-01-13T03:45:42.712Z,87.10
2019-01-13T03:48:11.872Z,86.80
2019-01-13T03:50:41.002Z,86.80
2019-01-13T03:53:10.145Z,86.70
2019-01-13T03:55:39.290Z,86.40
2019-01-13T03:58:08.431Z,86.70
2019-01-13T04:00:37.631Z,86.80
2019-01-13T04:03:06.975Z,86.80
2019-01-13T04:05:36.113Z,86.60
2019-01-13T04:08:05.564Z,86.60
2019-01-13T04:10:34.696Z,86.70
2019-01-13T04:13:04.057Z,86.70
2019-01-13T04:15:41.624Z,86.80
2019-01-13T04:18:10.908Z,86.80
2019-01-13T04:20:40.024Z,86.70
2019-01-13T04:23:09.177Z,86.50
2019-01-13T04:25:38.308Z,86.00
2019-01-13T04:28:07.448Z,86.70
2019-01-13T04:30:36.594Z,86.30
2019-01-13T04:33:06.122Z,86.40
2019-01-13T04:35:35.279Z,86.20
2019-01-13T04:38:04.492Z,86.40
2019-01-13T04:40:33.657Z,86.30
2019-01-13T04:43:02.851Z,86.30
2019-01-13T04:45:32.062Z,86.30
2019-01-13T04:48:01.189Z,86.20
2019-01-13T04:50:30.405Z,86.40
2019-01-13T04:52:59.651Z,86.30
2019-01-13T04:55:28.988Z,86.20
2019-01-13T04:57:58.211Z,86.10
2019-01-13T05:00:27.367Z,85.80
2019-01-13T05:02:56.694Z,85.90
2019-01-13T05:05:25.846Z,86.60
2019-01-13T05:07:55.113Z,86.10
2019-01-13T05:10:24.391Z,85.90
2019-01-13T05:12:53.528Z,85.70
2019-01-13T05:15:22.877Z,85.80
2019-01-13T05:17:52.003Z,86.00
2019-01-13T05:20:21.692Z,86.10
2019-01-13T05:22:50.838Z,86.00
2019-01-13T05:25:20.013Z,86.10
2019-01-13T05:27:49.144Z,86.30
2019-01-13T05:30:22.780Z,86.20
2019-01-13T05:32:51.928Z,86.30
2019-01-13T05:35:21.508Z,87.00
2019-01-13T05:37:50.660Z,86.70
2019-01-13T05:40:21.090Z,86.20
2019-01-13T05:42:50.239Z,86.40
2019-01-13T05:45:20.728Z,85.90
2019-01-13T05:47:50.110Z,85.60
2019-01-13T05:50:19.910Z,85.50
2019-01-13T05:52:54.325Z,86.10
2019-01-13T05:55:24.029Z,86.30
2019-01-13T05:57:53.176Z,86.50
2019-01-13T06:00:24.879Z,86.70
2019-01-13T06:02:54.023Z,87.00
2019-01-13T06:05:23.305Z,86.90
2019-01-13T06:07:52.464Z,86.80
2019-01-13T06:10:24.905Z,86.70
2019-01-13T06:12:54.052Z,87.20
2019-01-13T06:15:24.483Z,86.70
2019-01-13T06:17:53.638Z,86.40
2019-01-13T06:20:24.853Z,86.10
2019-01-13T06:22:54.124Z,86.00
2019-01-13T06:25:23.268Z,85.60
2019-01-13T06:27:52.576Z,85.80
2019-01-13T06:30:25.196Z,85.80
2019-01-13T06:32:54.363Z,86.00
2019-01-13T06:35:23.618Z,85.90
2019-01-13T06:37:52.939Z,85.30
2019-01-13T06:40:22.777Z,85.90
2019-01-13T06:42:52.213Z,85.60
2019-01-13T06:45:23.434Z,85.70
2019-01-13T06:47:52.655Z,85.50
2019-01-13T06:50:22.024Z,85.70
2019-01-13T06:52:51.364Z,85.90
2019-01-13T06:55:20.521Z,85.70
2019-01-13T06:57:49.761Z,85.60
2019-01-13T07:00:23.780Z,85.50
2019-01-13T07:02:53.689Z,85.70
2019-01-13T07:05:23.014Z,85.40
2019-01-13T07:07:52.326Z,85.80
2019-01-13T07:10:21.458Z,85.60
2019-01-13T07:12:50.663Z,85.20
2019-01-13T07:15:20.865Z,85.20
2019-01-13T07:17:50.069Z,85.10
2019-01-13T07:20:21.365Z,85.50
2019-01-13T07:22:51.208Z,85.90
2019-01-13T07:25:20.617Z,85.80
2019-01-13T07:27:49.761Z,85.40
2019-01-13T07:30:23.919Z,85.40
2019-01-13T07:32:53.410Z,85.80
2019-01-13T07:35:22.562Z,85.50
2019-01-13T07:37:51.708Z,85.70
2019-01-13T07:40:22.493Z,85.20
2019-01-13T07:42:51.941Z,85.50
2019-01-13T07:45:25.675Z,85.20
2019-01-13T07:47:54.845Z,85.10
2019-01-13T07:50:23.983Z,85.40
2019-01-13T07:52:53.347Z,85.10
2019-01-13T07:55:23.761Z,85.10
2019-01-13T07:57:53.239Z,84.70
2019-01-13T08:00:28.060Z,85.10
2019-01-13T08:02:57.222Z,85.70
2019-01-13T08:05:26.356Z,86.10
2019-01-13T08:07:55.512Z,86.00
2019-01-13T08:10:24.672Z,86.00
2019-01-13T08:12:53.852Z,86.10
2019-01-13T08:15:22.993Z,85.90
2019-01-13T08:17:52.236Z,85.90
2019-01-13T08:20:24.222Z,85.90
2019-01-13T08:22:53.589Z,86.10
2019-01-13T08:25:23.054Z,86.10
2019-01-13T08:27:52.228Z,85.70
2019-01-13T08:30:21.569Z,85.90
2019-01-13T08:32:50.811Z,85.40
2019-01-13T08:37:55.303Z,86.00
2019-01-13T08:40:24.465Z,85.90
2019-01-13T08:42:53.610Z,85.80
2019-01-13T08:45:22.740Z,85.70
2019-01-13T08:47:51.981Z,86.30
2019-01-13T08:50:23.008Z,85.90
2019-01-13T08:52:52.483Z,86.00
2019-01-13T08:55:23.378Z,85.50
2019-01-13T08:57:52.528Z,86.10
2019-01-13T09:00:27.168Z,85.90
2019-01-13T09:02:56.375Z,85.70
2019-01-13T09:05:26.007Z,86.10
2019-01-13T09:07:55.152Z,85.70
2019-01-13T09:10:24.360Z,85.60
2019-01-13T09:12:56.847Z,86.10
2019-01-13T09:15:25.441Z,85.90
2019-01-13T09:17:54.937Z,85.80
2019-01-13T09:20:33.023Z,86.10
2019-01-13T09:23:03.464Z,85.60
2019-01-13T09:25:37.067Z,86.10
2019-01-13T09:28:07.503Z,85.70
2019-01-13T09:30:37.216Z,85.90
2019-01-13T09:33:06.633Z,85.80
2019-01-13T09:35:36.023Z,86.90
2019-01-13T09:38:06.806Z,86.80
2019-01-13T09:40:36.219Z,85.80
2019-01-13T09:43:06.429Z,85.70
2019-01-13T09:45:36.200Z,85.50
2019-01-13T09:48:05.508Z,85.90
2019-01-13T09:50:34.696Z,85.90
2019-01-13T09:53:04.443Z,86.00
2019-01-13T09:55:34.552Z,85.50
2019-01-13T09:58:03.744Z,86.10
2019-01-13T10:00:37.027Z,85.30
2019-01-13T10:03:08.049Z,85.50
2019-01-13T10:05:38.047Z,85.80
2019-01-13T10:08:08.002Z,85.60
2019-01-13T10:10:37.353Z,86.10
2019-01-13T10:13:06.616Z,86.40
2019-01-13T10:15:35.765Z,86.50
2019-01-13T10:18:05.030Z,86.50
2019-01-13T10:20:34.215Z,86.50
2019-01-13T10:23:03.404Z,88.50
2019-01-13T10:25:32.556Z,87.60
2019-01-13T10:28:01.814Z,86.90
2019-01-13T10:30:32.776Z,86.70
2019-01-13T10:33:02.313Z,86.00
2019-01-13T10:35:31.872Z,86.30
2019-01-13T10:38:01.176Z,86.40
2019-01-13T10:40:31.564Z,86.50
2019-01-13T10:43:01.217Z,86.50
2019-01-13T10:45:31.116Z,86.60
2019-01-13T10:48:00.602Z,86.70
2019-01-13T10:50:31.841Z,86.30
2019-01-13T10:53:08.512Z,86.10
2019-01-13T10:55:37.934Z,86.40
2019-01-13T10:58:08.168Z,86.30
2019-01-13T11:00:38.436Z,86.20
2019-01-13T11:03:07.915Z,85.70
2019-01-13T11:05:37.392Z,85.40
2019-01-13T11:08:11.653Z,85.70
2019-01-13T11:10:38.522Z,86.50
2019-01-13T11:13:07.723Z,86.70
2019-01-13T11:15:36.860Z,86.20
2019-01-13T11:18:06.896Z,85.50
2019-01-13T11:20:38.332Z,86.20
2019-01-13T11:23:08.248Z,86.70
2019-01-13T11:25:37.440Z,86.30
2019-01-13T11:28:06.880Z,86.40
2019-01-13T11:30:36.132Z,86.40
2019-01-13T11:33:09.654Z,86.40
2019-01-13T11:35:36.413Z,86.70
2019-01-13T11:38:05.901Z,87.10
2019-01-13T11:40:35.142Z,86.90
2019-01-13T11:43:04.543Z,87.60
2019-01-13T11:45:33.776Z,87.40
2019-01-13T11:48:03.087Z,87.20
2019-01-13T11:50:32.339Z,86.20
2019-01-13T11:53:01.494Z,86.60
2019-01-13T11:55:30.701Z,86.70
2019-01-13T11:57:59.864Z,86.70
2019-01-13T12:00:46.525Z,86.30
2019-01-13T12:03:17.152Z,86.50
2019-01-13T12:05:46.951Z,85.90
2019-01-13T12:08:16.122Z,86.20
2019-01-13T12:10:45.294Z,86.00
2019-01-13T12:13:14.433Z,86.40
2019-01-13T12:15:43.590Z,86.00
2019-01-13T12:18:12.836Z,86.60
2019-01-13T12:20:41.998Z,86.30
2019-01-13T12:23:11.156Z,86.70
2019-01-13T12:25:40.481Z,86.50
2019-01-13T12:28:09.657Z,87.00
2019-01-13T12:30:38.875Z,86.70
2019-01-13T12:33:08.056Z,86.90
2019-01-13T12:35:37.268Z,87.40
2019-01-13T12:38:06.752Z,86.40
2019-01-13T12:40:36.133Z,86.80
2019-01-13T12:43:06.665Z,86.80
2019-01-13T12:45:36.156Z,86.80
2019-01-13T12:48:05.640Z,86.50
2019-01-13T12:50:34.911Z,87.00
2019-01-13T12:53:04.436Z,87.20
2019-01-13T12:55:33.714Z,86.40
2019-01-13T12:58:02.944Z,86.70
2019-01-13T13:00:32.125Z,86.40
2019-01-13T13:03:01.274Z,86.70
2019-01-13T13:05:30.497Z,87.90
2019-01-13T13:07:59.704Z,88.00
2019-01-13T13:10:43.245Z,87.80
2019-01-13T13:13:13.124Z,88.00
2019-01-13T13:15:42.312Z,88.50
2019-01-13T13:18:11.550Z,88.80
2019-01-13T13:20:40.772Z,88.30
2019-01-13T13:23:10.322Z,88.60
2019-01-13T13:25:39.631Z,88.90
2019-01-13T13:28:08.797Z,88.70
2019-01-13T13:30:37.952Z,88.20
2019-01-13T13:33:07.107Z,88.10
2019-01-13T13:35:39.841Z,88.60
2019-01-13T13:38:07.804Z,88.70
2019-01-13T13:40:37.137Z,88.60
2019-01-13T13:43:06.559Z,88.60
2019-01-13T13:45:35.891Z,88.40
2019-01-13T13:48:05.670Z,88.10
2019-01-13T13:50:34.809Z,88.00
2019-01-13T13:53:04.568Z,87.50
2019-01-13T13:55:33.732Z,87.90
2019-01-13T13:58:03.247Z,88.40
2019-01-13T14:00:36.585Z,89.00
2019-01-13T14:03:06.464Z,88.00
2019-01-13T14:05:35.739Z,87.70
2019-01-13T14:08:06.944Z,88.00
2019-01-13T14:10:41.481Z,87.90
2019-01-13T14:13:10.941Z,87.90
2019-01-13T14:15:40.288Z,88.20
2019-01-13T14:18:09.476Z,88.30
2019-01-13T14:20:38.744Z,88.70
2019-01-13T14:23:07.933Z,88.70
2019-01-13T14:25:37.363Z,88.80
2019-01-13T14:28:06.569Z,89.10
2019-01-13T14:30:35.782Z,88.40
2019-01-13T14:33:05.453Z,88.70
2019-01-13T14:35:34.796Z,89.30
2019-01-13T14:38:04.481Z,89.20
2019-01-13T14:40:33.713Z,88.90
2019-01-13T14:43:03.073Z,89.20
2019-01-13T14:45:32.342Z,88.90
2019-01-13T14:48:01.478Z,88.80
2019-01-13T14:50:32.340Z,89.10
2019-01-13T14:53:02.557Z,89.10
2019-01-13T14:55:31.841Z,89.20
2019-01-13T14:58:00.999Z,89.40
2019-01-13T15:00:31.897Z,89.50
2019-01-13T15:03:01.698Z,90.00
2019-01-13T15:05:32.174Z,90.00
2019-01-13T15:08:01.397Z,90.00
2019-01-13T15:10:30.750Z,90.00
2019-01-13T15:12:59.937Z,90.10
2019-01-13T15:15:29.300Z,90.10
2019-01-13T15:17:58.455Z,90.20
2019-01-13T15:20:27.696Z,90.10
2019-01-13T15:22:56.956Z,90.10
2019-01-13T15:25:30.875Z,90.20
2019-01-13T15:28:00.048Z,90.30
2019-01-13T15:30:34.805Z,90.20
2019-01-13T15:33:04.742Z,90.10
2019-01-13T15:35:35.211Z,90.20
2019-01-13T15:38:05.248Z,90.20
2019-01-13T15:40:34.440Z,90.20
2019-01-13T15:43:03.732Z,90.30
2019-01-13T15:45:32.879Z,90.50
2019-01-13T15:48:02.180Z,90.30
2019-01-13T15:50:31.709Z,90.30
2019-01-13T15:53:00.893Z,90.30
2019-01-13T15:55:30.130Z,90.40
2019-01-13T15:57:59.305Z,90.40
2019-01-13T16:00:36.179Z,90.40
2019-01-13T16:03:07.805Z,90.40
2019-01-13T16:05:37.300Z,90.50
2019-01-13T16:08:06.713Z,90.50
2019-01-13T16:10:36.109Z,90.40
2019-01-13T16:13:05.478Z,90.20
2019-01-13T16:15:34.767Z,90.40
2019-01-13T16:18:04.216Z,90.40
2019-01-13T16:20:38.082Z,90.40
2019-01-13T16:23:07.357Z,90.50
2019-01-13T16:25:36.542Z,90.50
2019-01-13T16:28:06.338Z,90.40
2019-01-13T16:30:35.815Z,90.30
2019-01-13T16:33:05.189Z,90.40
2019-01-13T16:35:37.151Z,90.40
2019-01-13T16:38:06.904Z,90.30
2019-01-13T16:40:36.309Z,90.40
2019-01-13T16:43:07.398Z,90.30
2019-01-13T16:45:36.582Z,90.50
2019-01-13T16:48:07.029Z,90.90
2019-01-13T16:50:36.228Z,90.70
2019-01-13T16:53:06.148Z,90.90
2019-01-13T16:55:36.151Z,91.00
2019-01-13T16:58:06.386Z,90.90
2019-01-13T17:00:35.756Z,91.10
2019-01-13T17:03:05.598Z,91.00
2019-01-13T17:05:34.873Z,90.90
2019-01-13T17:08:04.908Z,90.80
2019-01-13T17:10:34.200Z,90.90
2019-01-13T17:13:03.651Z,90.60
2019-01-13T17:15:34.482Z,90.60
2019-01-13T17:18:03.644Z,90.60
2019-01-13T17:20:32.808Z,91.00
2019-01-13T17:23:02.110Z,90.80
2019-01-13T17:25:31.252Z,90.80
2019-01-13T17:28:00.419Z,90.70
2019-01-13T17:30:32.097Z,90.60
2019-01-13T17:33:01.518Z,90.60
2019-01-13T17:35:30.736Z,90.80
2019-01-13T17:38:00.040Z,90.70
2019-01-13T17:40:29.193Z,90.60
2019-01-13T17:42:58.581Z,90.50
2019-01-13T17:45:29.897Z,90.70
2019-01-13T17:47:59.160Z,90.40
2019-01-13T17:50:28.591Z,90.40
2019-01-13T17:52:57.865Z,90.50
2019-01-13T17:55:29.075Z,90.40
2019-01-13T17:57:58.508Z,90.40
2019-01-13T18:00:47.001Z,90.40
2019-01-13T18:03:22.601Z,90.50
2019-01-13T18:05:52.128Z,90.40
2019-01-13T18:08:21.558Z,90.40
2019-01-13T18:10:50.777Z,90.40
2019-01-13T18:13:19.933Z,90.50
2019-01-13T18:15:49.324Z,90.60
2019-01-13T18:18:18.488Z,90.70
2019-01-13T18:20:47.696Z,90.60
2019-01-13T18:23:16.863Z,90.60
2019-01-13T18:25:46.380Z,91.00
2019-01-13T18:28:15.653Z,90.80
2019-01-13T18:30:44.940Z,90.80
2019-01-13T18:33:14.209Z,90.80
2019-01-13T18:35:43.521Z,90.70
2019-01-13T18:38:12.756Z,90.60
2019-01-13T18:40:42.689Z,91.00
2019-01-13T18:43:11.853Z,90.60
2019-01-13T18:45:41.131Z,90.60
2019-01-13T18:48:10.489Z,90.60
2019-01-13T18:50:39.819Z,90.80
2019-01-13T18:53:11.927Z,90.40
2019-01-13T18:55:41.288Z,90.60
2019-01-13T18:58:10.560Z,90.50
2019-01-13T19:00:39.796Z,90.60
2019-01-13T19:03:08.943Z,90.70
2019-01-13T19:05:38.160Z,90.80
2019-01-13T19:08:07.485Z,90.80
2019-01-13T19:11:19.593Z,90.60
2019-01-13T19:14:14.480Z,90.50
2019-01-13T19:16:51.946Z,90.40
2019-01-13T19:19:21.210Z,90.40
2019-01-13T19:21:50.394Z,90.40
2019-01-13T19:24:19.533Z,90.50
2019-01-13T19:26:48.750Z,90.30
2019-01-13T19:29:17.911Z,90.40
2019-01-13T19:31:47.217Z,90.40
2019-01-13T19:34:16.380Z,90.20
2019-01-13T19:36:45.621Z,90.30
2019-01-13T19:39:14.973Z,90.30
2019-01-13T19:41:44.312Z,90.40
2019-01-13T19:44:13.489Z,90.50
2019-01-13T19:46:42.774Z,90.40
2019-01-13T19:49:12.564Z,90.50
2019-01-13T19:51:41.765Z,90.40
2019-01-13T19:54:11.085Z,90.50
2019-01-13T19:56:40.240Z,90.50
2019-01-13T19:59:09.489Z,90.80
2019-01-13T20:01:38.710Z,90.60
2019-01-13T20:04:08.042Z,90.70
2019-01-13T20:06:37.259Z,90.70
2019-01-13T20:09:10.283Z,90.50
2019-01-13T20:11:39.594Z,90.50
2019-01-13T20:14:08.895Z,90.80
2019-01-13T20:16:38.295Z,90.60
2019-01-13T20:19:07.555Z,90.90
2019-01-13T20:21:36.696Z,91.00
2019-01-13T20:24:05.883Z,90.90
2019-01-13T20:26:35.122Z,90.90
2019-01-13T20:29:04.400Z,91.00
2019-01-13T20:31:33.663Z,90.80
2019-01-13T20:34:03.012Z,90.80
2019-01-13T20:36:32.160Z,90.90
2019-01-13T20:39:01.482Z,91.00
2019-01-13T20:41:31.095Z,91.10
2019-01-13T20:44:00.232Z,91.10
2019-01-13T20:46:29.572Z,91.10
2019-01-13T20:48:58.769Z,91.20
2019-01-13T20:51:27.985Z,91.10
2019-01-13T20:53:57.228Z,91.20
2019-01-13T20:56:26.413Z,91.20
2019-01-13T20:58:55.561Z,91.30
2019-01-13T21:01:24.756Z,91.40
2019-01-13T21:03:54.092Z,91.70
2019-01-13T21:06:23.233Z,92.00
2019-01-13T21:08:52.953Z,92.00
2019-01-13T21:11:22.212Z,91.00
2019-01-13T21:13:51.553Z,90.10
2019-01-13T21:16:22.751Z,90.10
2019-01-13T21:18:51.881Z,87.50
2019-01-13T21:21:21.256Z,86.40
2019-01-13T21:23:50.410Z,86.80
2019-01-13T21:26:19.607Z,89.20
2019-01-13T21:28:48.844Z,90.40
2019-01-13T21:31:18.191Z,90.10
2019-01-13T21:33:47.329Z,90.20
2019-01-13T21:36:16.533Z,89.70
2019-01-13T21:38:45.693Z,88.40
2019-01-13T21:41:14.927Z,88.80
2019-01-13T21:43:44.340Z,89.10
2019-01-13T21:46:13.486Z,88.70
2019-01-13T21:48:42.660Z,88.70
2019-01-13T21:51:11.835Z,88.30
2019-01-13T21:53:41.099Z,88.70
2019-01-13T21:56:10.369Z,89.20
2019-01-13T21:58:39.553Z,89.00
2019-01-13T22:01:08.734Z,89.40
2019-01-13T22:03:37.909Z,89.90
2019-01-13T22:06:07.039Z,90.00
2019-01-13T22:08:36.203Z,90.10
2019-01-13T22:11:05.636Z,90.30
2019-01-13T22:13:34.897Z,90.40
2019-01-13T22:16:04.044Z,90.30
2019-01-13T22:18:33.318Z,90.30
2019-01-13T22:21:02.510Z,90.30
2019-01-13T22:23:31.688Z,90.20
2019-01-13T22:26:00.868Z,89.80
2019-01-13T22:28:30.090Z,90.00
2019-01-13T22:30:59.252Z,90.00
2019-01-13T22:33:28.389Z,89.50
2019-01-13T22:35:57.569Z,89.80
2019-01-13T22:38:26.818Z,90.00
2019-01-13T22:40:56.015Z,90.00
2019-01-13T22:43:25.248Z,89.20
2019-01-13T22:45:54.512Z,89.90
2019-01-13T22:48:23.838Z,90.20
2019-01-13T22:50:53.226Z,90.40
2019-01-13T22:53:22.473Z,90.50
2019-01-13T22:55:51.672Z,90.70
2019-01-13T22:58:20.909Z,90.60
2019-01-13T23:01:28.406Z,89.40
2019-01-13T23:04:00.561Z,89.90
2019-01-13T23:06:29.826Z,88.10
2019-01-13T23:08:58.972Z,88.60
2019-01-13T23:11:28.128Z,90.00
2019-01-13T23:13:57.456Z,88.70
2019-01-13T23:16:26.715Z,90.00
2019-01-13T23:18:55.845Z,87.40
2019-01-13T23:21:25.081Z,87.20
2019-01-13T23:23:54.328Z,86.90
2019-01-13T23:26:23.588Z,88.20
2019-01-13T23:28:52.836Z,87.30
2019-01-13T23:31:22.577Z,86.60
2019-01-13T23:33:51.751Z,87.20
2019-01-13T23:36:20.908Z,86.90
2019-01-13T23:38:50.072Z,87.00
2019-01-13T23:41:19.298Z,85.40
2019-01-13T23:43:48.566Z,86.20
2019-01-13T23:46:17.780Z,86.90
2019-01-13T23:48:46.937Z,86.50
2019-01-13T23:51:16.703Z,86.60
2019-01-13T23:53:45.929Z,86.90
2019-01-13T23:56:15.060Z,87.40
2019-01-13T23:58:44.221Z,87.30
